createdAt,value
2018-08-22T00:00:28.494Z,0.00
2018-08-22T00:01:28.475Z,0.00
2018-08-22T00:02:28.504Z,0.00
2018-08-22T00:03:28.839Z,0.00
2018-08-22T00:04:28.583Z,0.00
2018-08-22T00:05:28.676Z,0.00
2018-08-22T00:06:28.696Z,0.00
2018-08-22T00:07:28.682Z,0.00
2018-08-22T00:08:28.715Z,0.00
2018-08-22T00:09:28.806Z,0.00
2018-08-22T00:10:28.807Z,0.00
2018-08-22T00:11:28.822Z,0.00
2018-08-22T00:12:28.858Z,0.00
2018-08-22T00:13:28.944Z,0.00
2018-08-22T00:14:28.977Z,0.00
2018-08-22T00:15:28.960Z,0.00
2018-08-22T00:16:29.297Z,0.00
2018-08-22T00:17:29.090Z,0.00
2018-08-22T00:18:29.070Z,0.00
2018-08-22T00:19:29.150Z,0.00
2018-08-22T00:20:29.139Z,0.00
2018-08-22T00:21:29.221Z,0.00
2018-08-22T00:22:29.328Z,0.00
2018-08-22T00:23:29.541Z,0.00
2018-08-22T00:24:29.335Z,0.00
2018-08-22T00:25:29.452Z,0.00
2018-08-22T00:26:29.350Z,0.00
2018-08-22T00:27:29.392Z,0.00
2018-08-22T00:28:29.415Z,0.00
2018-08-22T00:29:29.506Z,0.00
2018-08-22T00:30:29.886Z,0.00
2018-08-22T00:31:29.524Z,0.00
2018-08-22T00:32:29.606Z,0.00
2018-08-22T00:33:29.642Z,0.00
2018-08-22T00:34:29.675Z,0.00
2018-08-22T00:35:29.709Z,0.00
2018-08-22T00:37:29.792Z,0.00
2018-08-22T00:38:30.064Z,0.00
2018-08-22T00:39:29.800Z,0.00
2018-08-22T00:40:29.836Z,0.00
2018-08-22T00:41:29.930Z,0.00
2018-08-22T00:42:29.905Z,0.00
2018-08-22T00:43:29.991Z,0.00
2018-08-22T00:44:29.975Z,0.00
2018-08-22T00:45:30.011Z,0.00
2018-08-22T00:46:30.045Z,0.00
2018-08-22T00:47:30.082Z,0.00
2018-08-22T00:48:30.164Z,0.00
2018-08-22T00:49:30.151Z,0.00
2018-08-22T00:50:30.189Z,0.00
2018-08-22T00:51:30.521Z,0.00
2018-08-22T00:52:30.254Z,0.00
2018-08-22T00:53:30.340Z,0.00
2018-08-22T00:54:30.373Z,0.00
2018-08-22T00:55:30.360Z,0.00
2018-08-22T00:56:30.448Z,0.00
2018-08-22T00:57:30.730Z,0.00
2018-08-22T00:58:30.476Z,0.00
2018-08-22T01:00:30.542Z,0.00
2018-08-22T01:01:30.625Z,0.00
2018-08-22T01:02:30.658Z,0.00
2018-08-22T01:03:30.990Z,0.00
2018-08-22T01:04:30.673Z,0.00
2018-08-22T01:05:30.712Z,0.00
2018-08-22T01:06:30.796Z,0.00
2018-08-22T01:07:30.776Z,0.00
2018-08-22T01:08:30.831Z,0.00
2018-08-22T01:09:31.173Z,0.00
2018-08-22T01:10:30.936Z,0.00
2018-08-22T01:11:30.919Z,0.00
2018-08-22T01:12:30.954Z,0.00
2018-08-22T01:13:31.046Z,0.00
2018-08-22T01:14:31.021Z,0.00
2018-08-22T01:15:31.114Z,0.00
2018-08-22T01:16:31.397Z,0.00
2018-08-22T01:17:31.281Z,0.00
2018-08-22T01:18:31.163Z,0.00
2018-08-22T01:19:31.244Z,0.00
2018-08-22T01:20:31.294Z,0.00
2018-08-22T01:21:31.314Z,0.00
2018-08-22T01:22:31.352Z,0.00
2018-08-22T01:23:31.635Z,0.00
2018-08-22T01:24:31.431Z,0.00
2018-08-22T01:25:31.457Z,0.00
2018-08-22T01:26:31.441Z,0.00
2018-08-22T01:27:31.476Z,0.00
2018-08-22T01:28:31.511Z,0.00
2018-08-22T01:29:31.594Z,0.00
2018-08-22T01:31:31.914Z,0.00
2018-08-22T01:32:31.646Z,0.00
2018-08-22T01:33:31.733Z,0.00
2018-08-22T01:34:31.720Z,0.00
2018-08-22T01:35:31.751Z,0.00
2018-08-22T01:36:31.838Z,0.00
2018-08-22T01:37:31.870Z,0.00
2018-08-22T01:38:32.154Z,0.00
2018-08-22T01:39:31.893Z,0.00
2018-08-22T01:40:31.933Z,0.00
2018-08-22T01:41:32.011Z,0.00
2018-08-22T01:42:31.994Z,0.00
2018-08-22T01:43:32.097Z,0.00
2018-08-22T01:44:32.065Z,0.00
2018-08-22T01:45:32.400Z,0.00
2018-08-22T01:46:32.181Z,0.00
2018-08-22T01:47:32.216Z,0.00
2018-08-22T01:48:32.203Z,0.00
2018-08-22T01:49:32.291Z,0.00
2018-08-22T01:50:32.277Z,0.00
2018-08-22T01:51:32.358Z,0.00
2018-08-22T01:52:32.639Z,0.00
2018-08-22T01:53:32.428Z,0.00
2018-08-22T01:54:32.462Z,0.00
2018-08-22T01:55:32.443Z,0.00
2018-08-22T01:56:32.480Z,0.00
2018-08-22T01:57:32.563Z,0.00
2018-08-22T01:58:32.602Z,0.00
2018-08-22T01:59:32.881Z,0.00
2018-08-22T02:00:32.666Z,0.00
2018-08-22T02:01:32.651Z,0.00
2018-08-22T02:02:32.686Z,0.00
2018-08-22T02:03:32.726Z,0.00
2018-08-22T02:04:32.806Z,0.00
2018-08-22T02:05:32.843Z,0.00
2018-08-22T02:06:32.824Z,0.00
2018-08-22T02:07:32.909Z,0.00
2018-08-22T02:08:32.944Z,0.00
2018-08-22T02:09:32.978Z,0.00
2018-08-22T02:10:33.013Z,0.00
2018-08-22T02:11:33.000Z,0.00
2018-08-22T02:12:33.033Z,0.00
2018-08-22T02:13:33.119Z,0.00
2018-08-22T02:14:33.149Z,0.00
2018-08-22T02:15:33.186Z,0.00
2018-08-22T02:16:33.173Z,0.00
2018-08-22T02:17:33.254Z,0.00
2018-08-22T02:18:33.589Z,0.00
2018-08-22T02:19:33.273Z,0.00
2018-08-22T02:20:33.318Z,0.00
2018-08-22T02:21:33.396Z,0.00
2018-08-22T02:22:33.494Z,0.00
2018-08-22T02:23:33.411Z,0.00
2018-08-22T02:24:33.854Z,0.00
2018-08-22T02:25:33.530Z,0.00
2018-08-22T02:26:33.563Z,0.00
2018-08-22T02:27:33.701Z,0.00
2018-08-22T02:28:33.583Z,0.00
2018-08-22T02:29:33.668Z,0.00
2018-08-22T02:30:34.005Z,0.00
2018-08-22T02:31:33.690Z,0.00
2018-08-22T02:32:33.772Z,0.00
2018-08-22T02:33:33.812Z,0.00
2018-08-22T02:34:33.789Z,0.00
2018-08-22T02:35:33.825Z,0.00
2018-08-22T02:36:33.866Z,0.00
2018-08-22T02:37:34.194Z,0.00
2018-08-22T02:38:33.979Z,0.00
2018-08-22T02:39:33.966Z,0.00
2018-08-22T02:40:33.996Z,0.00
2018-08-22T02:41:34.080Z,0.00
2018-08-22T02:42:34.118Z,0.00
2018-08-22T02:43:34.155Z,0.00
2018-08-22T02:44:34.440Z,0.00
2018-08-22T02:45:34.222Z,0.00
2018-08-22T02:46:34.206Z,0.00
2018-08-22T02:47:34.243Z,0.00
2018-08-22T02:48:34.322Z,0.00
2018-08-22T02:49:34.358Z,0.00
2018-08-22T02:50:34.338Z,0.00
2018-08-22T02:51:34.379Z,0.00
2018-08-22T02:52:34.501Z,0.00
2018-08-22T02:53:34.447Z,0.00
2018-08-22T02:54:34.556Z,0.00
2018-08-22T02:55:34.510Z,0.00
2018-08-22T02:56:34.549Z,0.00
2018-08-22T02:57:34.889Z,0.00
2018-08-22T02:58:34.669Z,0.00
2018-08-22T02:59:34.648Z,0.00
2018-08-22T03:00:34.738Z,0.00
2018-08-22T03:01:34.766Z,0.00
2018-08-22T03:02:34.756Z,0.00
2018-08-22T03:03:34.785Z,0.00
2018-08-22T03:04:35.130Z,0.00
2018-08-22T03:05:34.909Z,0.00
2018-08-22T03:06:34.953Z,0.00
2018-08-22T03:07:34.922Z,0.00
2018-08-22T03:08:35.009Z,0.00
2018-08-22T03:09:34.999Z,0.00
2018-08-22T03:10:35.075Z,0.00
2018-08-22T03:11:35.360Z,0.00
2018-08-22T03:12:35.155Z,0.00
2018-08-22T03:13:35.134Z,0.00
2018-08-22T03:14:35.171Z,0.00
2018-08-22T03:15:35.248Z,0.00
2018-08-22T03:16:35.237Z,0.00
2018-08-22T03:17:35.325Z,0.00
2018-08-22T03:18:35.302Z,0.00
2018-08-22T03:19:35.389Z,0.00
2018-08-22T03:20:35.376Z,0.00
2018-08-22T03:21:35.459Z,0.00
2018-08-22T03:22:35.444Z,0.00
2018-08-22T03:26:02.598Z,0.00
2018-08-22T03:27:02.288Z,0.00
2018-08-22T03:28:02.265Z,0.00
2018-08-22T03:29:02.308Z,0.00
2018-08-22T03:30:02.391Z,0.00
2018-08-22T03:31:02.409Z,0.00
2018-08-22T03:32:02.403Z,0.00
2018-08-22T03:33:02.745Z,0.00
2018-08-22T03:34:02.520Z,0.00
2018-08-22T03:35:02.555Z,0.00
2018-08-22T03:36:02.557Z,0.00
2018-08-22T03:37:02.583Z,0.00
2018-08-22T03:38:02.657Z,0.00
2018-08-22T03:40:02.733Z,0.00
2018-08-22T03:41:03.012Z,0.00
2018-08-22T03:42:02.757Z,0.00
2018-08-22T03:43:02.834Z,0.00
2018-08-22T03:44:02.819Z,0.00
2018-08-22T03:45:02.904Z,0.00
2018-08-22T03:46:02.937Z,0.00
2018-08-22T03:47:03.223Z,0.00
2018-08-22T03:48:02.958Z,0.00
2018-08-22T03:49:03.216Z,0.00
2018-08-22T03:50:03.396Z,0.00
2018-08-22T03:51:03.341Z,0.00
2018-08-22T03:52:03.309Z,0.00
2018-08-22T03:53:03.404Z,0.00
2018-08-22T03:54:03.455Z,0.00
2018-08-22T03:55:03.195Z,0.00
2018-08-22T03:56:03.231Z,0.00
2018-08-22T03:57:03.315Z,0.00
2018-08-22T03:58:03.298Z,0.00
2018-08-22T03:59:03.384Z,0.00
2018-08-22T04:00:03.367Z,0.00
2018-08-22T04:01:03.702Z,0.00
2018-08-22T04:02:03.448Z,0.00
2018-08-22T04:03:03.466Z,0.00
2018-08-22T04:04:03.552Z,0.00
2018-08-22T04:05:03.590Z,0.00
2018-08-22T04:06:03.567Z,4.00
2018-08-22T04:07:03.604Z,4.00
2018-08-22T04:08:03.746Z,4.00
2018-08-22T04:09:03.690Z,0.00
2018-08-22T04:10:03.750Z,4.00
2018-08-22T04:11:03.744Z,4.00
2018-08-22T04:12:03.825Z,8.00
2018-08-22T04:13:03.855Z,4.00
2018-08-22T04:14:04.194Z,8.00
2018-08-22T04:15:03.879Z,8.00
2018-08-22T04:16:03.958Z,12.00
2018-08-22T04:17:03.989Z,12.00
2018-08-22T04:18:03.972Z,12.00
2018-08-22T04:19:04.017Z,16.00
2018-08-22T04:20:04.041Z,20.00
2018-08-22T04:21:04.441Z,20.00
2018-08-22T04:22:04.163Z,20.00
2018-08-22T04:23:04.147Z,28.00
2018-08-22T04:24:04.181Z,28.00
2018-08-22T04:25:04.273Z,36.00
2018-08-22T04:26:04.297Z,36.00
2018-08-22T04:27:04.279Z,40.00
2018-08-22T04:28:04.620Z,44.00
2018-08-22T04:29:04.397Z,52.00
2018-08-22T04:30:04.437Z,56.00
2018-08-22T04:31:04.471Z,60.00
2018-08-22T04:32:04.454Z,68.00
2018-08-22T04:34:04.527Z,84.00
2018-08-22T04:35:04.902Z,88.00
2018-08-22T04:36:04.592Z,92.00
2018-08-22T04:37:04.674Z,100.00
2018-08-22T04:38:04.658Z,108.00
2018-08-22T04:39:04.697Z,116.00
2018-08-22T04:40:04.774Z,128.00
2018-08-22T04:41:05.111Z,132.00
2018-08-22T04:42:04.802Z,144.00
2018-08-22T04:43:04.831Z,156.00
2018-08-22T04:44:05.015Z,160.00
2018-08-22T04:45:04.895Z,172.00
2018-08-22T04:46:04.974Z,180.00
2018-08-22T04:47:05.308Z,192.00
2018-08-22T04:48:05.037Z,200.00
2018-08-22T04:49:05.079Z,212.00
2018-08-22T04:50:05.065Z,216.00
2018-08-22T04:51:05.098Z,232.00
2018-08-22T04:52:05.182Z,240.00
2018-08-22T04:53:05.465Z,252.00
2018-08-22T04:54:05.199Z,264.00
2018-08-22T04:55:05.227Z,272.00
2018-08-22T04:56:05.267Z,288.00
2018-08-22T04:57:05.376Z,296.00
2018-08-22T04:58:05.384Z,308.00
2018-08-22T04:59:05.474Z,320.00
2018-08-22T05:00:05.706Z,332.00
2018-08-22T05:01:05.434Z,340.00
2018-08-22T05:02:05.531Z,352.00
2018-08-22T05:03:05.560Z,360.00
2018-08-22T05:04:05.597Z,372.00
2018-08-22T05:05:05.622Z,380.00
2018-08-22T05:06:05.702Z,392.00
2018-08-22T05:07:05.942Z,400.00
2018-08-22T05:08:05.673Z,408.00
2018-08-22T05:09:05.753Z,420.00
2018-08-22T05:10:05.747Z,428.00
2018-08-22T05:11:05.777Z,440.00
2018-08-22T05:12:05.865Z,448.00
2018-08-22T05:13:05.899Z,456.00
2018-08-22T05:14:06.228Z,464.00
2018-08-22T05:15:05.917Z,480.00
2018-08-22T05:16:05.955Z,488.00
2018-08-22T05:17:06.026Z,500.00
2018-08-22T05:18:06.062Z,508.00
2018-08-22T05:19:06.068Z,516.00
2018-08-22T05:20:06.127Z,532.00
2018-08-22T05:21:06.469Z,540.00
2018-08-22T05:22:06.197Z,552.00
2018-08-22T05:23:06.229Z,560.00
2018-08-22T05:24:06.213Z,572.00
2018-08-22T05:25:06.296Z,580.00
2018-08-22T05:26:06.282Z,592.00
2018-08-22T05:27:06.311Z,600.00
2018-08-22T05:28:06.646Z,612.00
2018-08-22T05:30:06.465Z,632.00
2018-08-22T05:31:06.448Z,644.00
2018-08-22T05:32:06.585Z,708.00
2018-08-22T05:33:06.572Z,720.00
2018-08-22T05:34:06.603Z,732.00
2018-08-22T05:35:06.883Z,744.00
2018-08-22T05:36:06.614Z,756.00
2018-08-22T05:37:06.709Z,768.00
2018-08-22T05:38:06.739Z,780.00
2018-08-22T05:39:06.724Z,796.00
2018-08-22T05:40:06.758Z,804.00
2018-08-22T05:41:06.841Z,816.00
2018-08-22T05:42:07.125Z,828.00
2018-08-22T05:43:06.915Z,836.00
2018-08-22T05:44:06.887Z,848.00
2018-08-22T05:45:06.989Z,856.00
2018-08-22T05:46:06.960Z,864.00
2018-08-22T05:47:06.996Z,872.00
2018-08-22T05:48:07.078Z,888.00
2018-08-22T05:49:07.453Z,896.00
2018-08-22T05:50:07.094Z,912.00
2018-08-22T05:51:07.228Z,920.00
2018-08-22T05:52:07.174Z,936.00
2018-08-22T05:53:07.245Z,944.00
2018-08-22T05:54:07.277Z,952.00
2018-08-22T05:55:07.274Z,964.00
2018-08-22T05:56:07.292Z,976.00
2018-08-22T05:57:07.341Z,988.00
2018-08-22T05:58:07.423Z,992.00
2018-08-22T05:59:07.400Z,1004.00
2018-08-22T06:00:07.436Z,1016.00
2018-08-22T06:01:07.514Z,1024.00
2018-08-22T06:02:07.798Z,1036.00
2018-08-22T06:03:07.581Z,1044.00
2018-08-22T06:04:07.628Z,1052.00
2018-08-22T06:05:07.650Z,1064.00
2018-08-22T06:06:07.632Z,1068.00
2018-08-22T06:07:07.822Z,1080.00
2018-08-22T06:08:08.057Z,1084.00
2018-08-22T06:09:07.825Z,1096.00
2018-08-22T06:10:07.836Z,1100.00
2018-08-22T06:11:07.821Z,1104.00
2018-08-22T06:12:07.847Z,1112.00
2018-08-22T06:13:07.926Z,1120.00
2018-08-22T06:14:08.270Z,1120.00
2018-08-22T06:15:07.950Z,1116.00
2018-08-22T06:17:08.065Z,1136.00
2018-08-22T06:19:08.131Z,1140.00
2018-08-22T06:20:08.415Z,1152.00
2018-08-22T06:21:08.200Z,1160.00
2018-08-22T06:22:08.278Z,1164.00
2018-08-22T06:23:08.214Z,1172.00
2018-08-22T06:25:08.337Z,1180.00
2018-08-22T06:26:08.320Z,1180.00
2018-08-22T06:27:08.711Z,1184.00
2018-08-22T06:28:08.446Z,1176.00
2018-08-22T06:29:08.466Z,1180.00
2018-08-22T06:30:08.451Z,1156.00
2018-08-22T06:31:08.494Z,1204.00
2018-08-22T06:32:08.534Z,1208.00
2018-08-22T06:33:08.706Z,1216.00
2018-08-22T06:34:08.644Z,1216.00
2018-08-22T06:35:08.627Z,1212.00
2018-08-22T06:36:08.824Z,1224.00
2018-08-22T06:37:08.742Z,1232.00
2018-08-22T06:38:08.779Z,1208.00
2018-08-22T06:39:08.764Z,1240.00
2018-08-22T06:40:09.095Z,1248.00
2018-08-22T06:41:08.882Z,1248.00
2018-08-22T06:42:08.878Z,1228.00
2018-08-22T06:43:08.966Z,1236.00
2018-08-22T06:44:09.042Z,1268.00
2018-08-22T06:45:09.014Z,1292.00
2018-08-22T06:46:09.005Z,1300.00
2018-08-22T06:47:09.335Z,1308.00
2018-08-22T06:48:09.069Z,1312.00
2018-08-22T06:49:09.149Z,1320.00
2018-08-22T06:50:09.237Z,1312.00
2018-08-22T06:51:09.172Z,1308.00
2018-08-22T06:52:09.249Z,1336.00
2018-08-22T06:53:09.248Z,1324.00
2018-08-22T06:54:09.585Z,1364.00
2018-08-22T06:55:09.309Z,1376.00
2018-08-22T06:56:09.339Z,1336.00
2018-08-22T06:57:09.455Z,1288.00
2018-08-22T06:58:09.459Z,1308.00
2018-08-22T06:59:09.498Z,1336.00
2018-08-22T07:00:09.482Z,1364.00
2018-08-22T07:01:09.819Z,1380.00
2018-08-22T07:02:09.595Z,1388.00
2018-08-22T07:03:09.631Z,1424.00
2018-08-22T07:04:09.670Z,1424.00
2018-08-22T07:06:09.690Z,1404.00
2018-08-22T07:07:10.020Z,1432.00
2018-08-22T07:08:09.826Z,1464.00
2018-08-22T07:09:09.836Z,1468.00
2018-08-22T07:10:09.874Z,1448.00
2018-08-22T07:11:09.854Z,1404.00
2018-08-22T07:12:09.895Z,1428.00
2018-08-22T07:13:10.277Z,1440.00
2018-08-22T07:14:10.202Z,1468.00
2018-08-22T07:15:10.041Z,1460.00
2018-08-22T07:16:10.076Z,1480.00
2018-08-22T07:17:10.119Z,1496.00
2018-08-22T07:18:10.101Z,1456.00
2018-08-22T07:19:10.485Z,1512.00
2018-08-22T07:20:10.216Z,1532.00
2018-08-22T07:21:10.261Z,1544.00
2018-08-22T07:22:10.238Z,1548.00
2018-08-22T07:23:10.325Z,1516.00
2018-08-22T07:24:10.355Z,1508.00
2018-08-22T07:25:10.388Z,1496.00
2018-08-22T07:26:10.671Z,1472.00
2018-08-22T07:27:10.421Z,1464.00
2018-08-22T07:28:10.489Z,1468.00
2018-08-22T07:29:10.483Z,1536.00
2018-08-22T07:30:10.685Z,1564.00
2018-08-22T07:31:10.549Z,1560.00
2018-08-22T07:32:10.584Z,1556.00
2018-08-22T07:33:10.966Z,1508.00
2018-08-22T07:34:10.702Z,1516.00
2018-08-22T07:35:10.689Z,1524.00
2018-08-22T07:36:10.728Z,1536.00
2018-08-22T07:37:10.903Z,1540.00
2018-08-22T07:38:10.839Z,1536.00
2018-08-22T07:39:10.820Z,1532.00
2018-08-22T07:40:11.255Z,1520.00
2018-08-22T07:41:10.896Z,1512.00
2018-08-22T07:42:10.980Z,1496.00
2018-08-22T07:43:10.958Z,1504.00
2018-08-22T07:44:11.058Z,1512.00
2018-08-22T07:45:11.078Z,1512.00
2018-08-22T07:46:11.112Z,1544.00
2018-08-22T07:47:11.464Z,1552.00
2018-08-22T07:48:11.131Z,1540.00
2018-08-22T07:49:11.166Z,1548.00
2018-08-22T07:50:11.222Z,1560.00
2018-08-22T07:51:11.295Z,1576.00
2018-08-22T07:52:11.327Z,1556.00
2018-08-22T07:53:11.368Z,1524.00
2018-08-22T07:54:11.652Z,1548.00
2018-08-22T07:55:11.430Z,1540.00
2018-08-22T07:56:11.411Z,1572.00
2018-08-22T07:57:11.453Z,1564.00
2018-08-22T07:58:11.482Z,1588.00
2018-08-22T07:59:11.572Z,1648.00
2018-08-22T08:00:11.602Z,1696.00
2018-08-22T08:01:11.900Z,1664.00
2018-08-22T08:02:11.630Z,1644.00
2018-08-22T08:03:11.653Z,1636.00
2018-08-22T08:04:11.743Z,1660.00
2018-08-22T08:05:11.781Z,1676.00
2018-08-22T08:06:11.767Z,1700.00
2018-08-22T08:07:11.843Z,1712.00
2018-08-22T08:08:12.151Z,1728.00
2018-08-22T08:09:11.914Z,1736.00
2018-08-22T08:10:11.973Z,1728.00
2018-08-22T08:11:11.935Z,1716.00
2018-08-22T08:12:12.021Z,1692.00
2018-08-22T08:13:12.001Z,1684.00
2018-08-22T08:14:12.038Z,1656.00
2018-08-22T08:15:12.393Z,1632.00
2018-08-22T08:16:12.160Z,1640.00
2018-08-22T08:17:12.281Z,1660.00
2018-08-22T08:18:12.181Z,1624.00
2018-08-22T08:19:12.218Z,1604.00
2018-08-22T08:20:12.254Z,1600.00
2018-08-22T08:21:12.357Z,1580.00
2018-08-22T08:22:12.669Z,1572.00
2018-08-22T08:23:12.356Z,1560.00
2018-08-22T08:24:12.388Z,1568.00
2018-08-22T08:25:12.424Z,1560.00
2018-08-22T08:26:12.563Z,1552.00
2018-08-22T08:27:12.548Z,1528.00
2018-08-22T08:28:12.535Z,1504.00
2018-08-22T08:29:12.913Z,1516.00
2018-08-22T08:30:12.614Z,1500.00
2018-08-22T08:31:12.689Z,1504.00
2018-08-22T08:32:12.668Z,1484.00
2018-08-22T08:33:12.803Z,1528.00
2018-08-22T08:34:12.741Z,1540.00
2018-08-22T08:35:12.771Z,1500.00
2018-08-22T08:36:13.305Z,1512.00
2018-08-22T08:37:12.903Z,1524.00
2018-08-22T08:38:12.892Z,1548.00
2018-08-22T08:39:12.957Z,1556.00
2018-08-22T08:40:12.953Z,1544.00
2018-08-22T08:41:13.041Z,1548.00
2018-08-22T08:42:13.071Z,1532.00
2018-08-22T08:43:13.387Z,1528.00
2018-08-22T08:44:13.145Z,1504.00
2018-08-22T08:46:13.210Z,1548.00
2018-08-22T08:47:13.264Z,1580.00
2018-08-22T08:48:13.233Z,1592.00
2018-08-22T08:49:13.622Z,1564.00
2018-08-22T08:50:13.354Z,1508.00
2018-08-22T08:51:13.394Z,1524.00
2018-08-22T08:52:13.452Z,1572.00
2018-08-22T08:53:13.490Z,1580.00
2018-08-22T08:54:13.486Z,1592.00
2018-08-22T08:55:13.771Z,1568.00
2018-08-22T08:56:13.564Z,1588.00
2018-08-22T08:57:13.629Z,1608.00
2018-08-22T08:58:13.656Z,1604.00
2018-08-22T08:59:13.619Z,1640.00
2018-08-22T09:00:13.649Z,1644.00
2018-08-22T09:01:14.042Z,1708.00
2018-08-22T09:02:13.799Z,1704.00
2018-08-22T09:03:13.810Z,1664.00
2018-08-22T09:04:13.789Z,1628.00
2018-08-22T09:05:13.872Z,1632.00
2018-08-22T09:06:13.857Z,1632.00
2018-08-22T09:07:13.947Z,1628.00
2018-08-22T09:08:14.286Z,1600.00
2018-08-22T09:09:14.033Z,1612.00
2018-08-22T09:10:14.010Z,1636.00
2018-08-22T09:11:14.040Z,1640.00
2018-08-22T09:12:14.154Z,1648.00
2018-08-22T09:13:14.157Z,1672.00
2018-08-22T09:14:14.198Z,1700.00
2018-08-22T09:15:14.525Z,1684.00
2018-08-22T09:16:14.213Z,1628.00
2018-08-22T09:17:14.342Z,1640.00
2018-08-22T09:18:14.335Z,1648.00
2018-08-22T09:19:14.315Z,1660.00
2018-08-22T09:20:14.409Z,1676.00
2018-08-22T09:21:14.571Z,1676.00
2018-08-22T09:22:14.735Z,1740.00
2018-08-22T09:23:14.513Z,1776.00
2018-08-22T09:24:14.499Z,1836.00
2018-08-22T09:25:14.597Z,1856.00
2018-08-22T09:26:14.573Z,1860.00
2018-08-22T09:27:14.611Z,1880.00
2018-08-22T09:28:14.803Z,1880.00
2018-08-22T09:29:14.975Z,1852.00
2018-08-22T09:30:14.758Z,1832.00
2018-08-22T09:31:14.790Z,1840.00
2018-08-22T09:32:14.856Z,1860.00
2018-08-22T09:33:14.861Z,1908.00
2018-08-22T09:34:14.899Z,1908.00
2018-08-22T09:35:14.933Z,1880.00
2018-08-22T09:36:15.215Z,1908.00
2018-08-22T09:37:15.002Z,1928.00
2018-08-22T09:38:14.991Z,1928.00
2018-08-22T09:39:15.078Z,1900.00
2018-08-22T09:40:15.116Z,1900.00
2018-08-22T09:41:15.185Z,1896.00
2018-08-22T09:42:15.182Z,1852.00
2018-08-22T09:43:15.588Z,1900.00
2018-08-22T09:44:15.209Z,1924.00
2018-08-22T09:45:15.290Z,1864.00
2018-08-22T09:46:15.326Z,1888.00
2018-08-22T09:47:15.360Z,1924.00
2018-08-22T09:48:15.358Z,1944.00
2018-08-22T09:49:15.429Z,1944.00
2018-08-22T09:50:15.712Z,1948.00
2018-08-22T09:51:15.448Z,1952.00
2018-08-22T09:52:15.554Z,1960.00
2018-08-22T09:53:15.576Z,1960.00
2018-08-22T09:54:15.567Z,1960.00
2018-08-22T09:55:15.588Z,1964.00
2018-08-22T09:56:15.636Z,1976.00
2018-08-22T09:57:16.068Z,1984.00
2018-08-22T09:58:15.798Z,1992.00
2018-08-22T09:59:15.747Z,2000.00
2018-08-22T10:00:15.895Z,2004.00
2018-08-22T10:01:15.808Z,2020.00
2018-08-22T10:02:15.902Z,2036.00
2018-08-22T10:03:15.880Z,2044.00
2018-08-22T10:04:16.270Z,2056.00
2018-08-22T10:05:16.417Z,2068.00
2018-08-22T10:06:16.541Z,2076.00
2018-08-22T10:07:16.328Z,2092.00
2018-08-22T10:08:16.393Z,2112.00
2018-08-22T10:09:16.378Z,2136.00
2018-08-22T10:10:16.383Z,2156.00
2018-08-22T10:11:16.157Z,2168.00
2018-08-22T10:12:16.238Z,2192.00
2018-08-22T10:13:16.273Z,2216.00
2018-08-22T10:14:16.282Z,2248.00
2018-08-22T10:15:16.349Z,2264.00
2018-08-22T10:16:16.332Z,2276.00
2018-08-22T10:17:16.728Z,2288.00
2018-08-22T10:18:16.406Z,2308.00
2018-08-22T10:19:16.515Z,2316.00
2018-08-22T10:20:16.470Z,2316.00
2018-08-22T10:21:16.566Z,2324.00
2018-08-22T10:22:16.597Z,2328.00
2018-08-22T10:23:16.885Z,2332.00
2018-08-22T10:24:16.669Z,2336.00
2018-08-22T10:25:16.704Z,2340.00
2018-08-22T10:26:16.685Z,2344.00
2018-08-22T10:27:16.769Z,2368.00
2018-08-22T10:28:16.816Z,2396.00
2018-08-22T10:29:17.150Z,2416.00
2018-08-22T10:30:16.895Z,2420.00
2018-08-22T10:31:16.861Z,2428.00
2018-08-22T10:32:16.984Z,2448.00
2018-08-22T10:33:16.938Z,2480.00
2018-08-22T10:34:17.025Z,2508.00
2018-08-22T10:35:17.318Z,2524.00
2018-08-22T10:36:17.038Z,2548.00
2018-08-22T10:37:17.134Z,2560.00
2018-08-22T10:38:17.177Z,2580.00
2018-08-22T10:39:17.200Z,2580.00
2018-08-22T10:40:17.246Z,2576.00
2018-08-22T10:41:17.280Z,2580.00
2018-08-22T10:42:17.571Z,2584.00
2018-08-22T10:43:17.320Z,2600.00
2018-08-22T10:44:17.411Z,2604.00
2018-08-22T10:45:17.365Z,2616.00
2018-08-22T10:46:17.401Z,2632.00
2018-08-22T10:47:17.494Z,2644.00
2018-08-22T10:48:17.465Z,2656.00
2018-08-22T10:49:17.817Z,2672.00
2018-08-22T10:50:17.538Z,2680.00
2018-08-22T10:51:17.575Z,2688.00
2018-08-22T10:52:17.674Z,2700.00
2018-08-22T10:53:17.701Z,2720.00
2018-08-22T10:54:17.682Z,2748.00
2018-08-22T10:55:17.791Z,2776.00
2018-08-22T10:56:18.053Z,2812.00
2018-08-22T10:57:17.835Z,2840.00
2018-08-22T10:58:17.874Z,2868.00
2018-08-22T10:59:17.882Z,2876.00
2018-08-22T11:00:17.951Z,2884.00
2018-08-22T11:01:17.989Z,2888.00
2018-08-22T11:02:18.018Z,2916.00
2018-08-22T11:03:18.309Z,2936.00
2018-08-22T11:04:18.093Z,2948.00
2018-08-22T11:05:18.088Z,2968.00
2018-08-22T11:06:18.113Z,2988.00
2018-08-22T11:07:18.164Z,3028.00
2018-08-22T11:08:18.241Z,3072.00
2018-08-22T11:09:18.267Z,3096.00
2018-08-22T11:10:18.572Z,3100.00
2018-08-22T11:11:18.298Z,3092.00
2018-08-22T11:12:18.324Z,3096.00
2018-08-22T11:13:18.367Z,3112.00
2018-08-22T11:14:18.444Z,3140.00
2018-08-22T11:15:18.483Z,3168.00
2018-08-22T11:16:18.460Z,3200.00
2018-08-22T11:17:18.852Z,3224.00
2018-08-22T11:18:18.569Z,3244.00
2018-08-22T11:19:18.622Z,3248.00
2018-08-22T11:20:18.660Z,3244.00
2018-08-22T11:21:18.701Z,3248.00
2018-08-22T11:22:19.023Z,3252.00
2018-08-22T11:23:18.744Z,3252.00
2018-08-22T11:25:19.139Z,3280.00
2018-08-22T11:26:18.879Z,3288.00
2018-08-22T11:27:18.914Z,3308.00
2018-08-22T11:28:18.976Z,3348.00
2018-08-22T11:29:18.929Z,3392.00
2018-08-22T11:30:19.028Z,3448.00
2018-08-22T11:31:19.059Z,3468.00
2018-08-22T11:32:19.334Z,3488.00
2018-08-22T11:33:19.169Z,3500.00
2018-08-22T11:34:19.183Z,3524.00
2018-08-22T11:35:19.212Z,3560.00
2018-08-22T11:36:19.187Z,3620.00
2018-08-22T11:37:19.263Z,3696.00
2018-08-22T11:38:19.253Z,3760.00
2018-08-22T11:39:19.593Z,3856.00
2018-08-22T11:40:19.380Z,3920.00
2018-08-22T11:41:19.422Z,3964.00
2018-08-22T11:42:19.446Z,4008.00
2018-08-22T11:43:19.444Z,3988.00
2018-08-22T11:44:19.517Z,3932.00
2018-08-22T11:45:19.547Z,3904.00
2018-08-22T11:46:19.885Z,3904.00
2018-08-22T11:47:19.633Z,3936.00
2018-08-22T11:48:19.613Z,3944.00
2018-08-22T11:49:19.696Z,3928.00
2018-08-22T11:50:19.681Z,3944.00
2018-08-22T11:51:19.766Z,3988.00
2018-08-22T11:52:19.801Z,4036.00
2018-08-22T11:53:20.150Z,4060.00
2018-08-22T11:54:19.827Z,4092.00
2018-08-22T11:55:19.859Z,4164.00
2018-08-22T11:56:19.952Z,4280.00
2018-08-22T11:57:19.986Z,4448.00
2018-08-22T11:58:20.021Z,4604.00
2018-08-22T11:59:20.016Z,4684.00
2018-08-22T12:00:20.402Z,4784.00
2018-08-22T12:02:20.166Z,4992.00
2018-08-22T12:03:20.163Z,5036.00
2018-08-22T12:04:20.239Z,5036.00
2018-08-22T12:05:20.273Z,5064.00
2018-08-22T12:06:20.314Z,5132.00
2018-08-22T12:07:20.647Z,5256.00
2018-08-22T12:08:20.395Z,5396.00
2018-08-22T12:09:20.415Z,5516.00
2018-08-22T12:10:20.475Z,5588.00
2018-08-22T12:11:20.431Z,5628.00
2018-08-22T12:12:20.544Z,5692.00
2018-08-22T12:13:20.866Z,5768.00
2018-08-22T12:14:20.546Z,5840.00
2018-08-22T12:15:20.654Z,5720.00
2018-08-22T12:16:20.620Z,5572.00
2018-08-22T12:17:20.699Z,5488.00
2018-08-22T12:18:20.747Z,5468.00
2018-08-22T12:19:21.085Z,5520.00
2018-08-22T12:20:20.756Z,5548.00
2018-08-22T12:21:20.845Z,5608.00
2018-08-22T12:22:20.895Z,5704.00
2018-08-22T12:23:20.988Z,5788.00
2018-08-22T12:24:20.919Z,5864.00
2018-08-22T12:25:20.999Z,5924.00
2018-08-22T12:26:21.037Z,5960.00
2018-08-22T12:28:21.117Z,6068.00
2018-08-22T12:29:21.095Z,6140.00
2018-08-22T12:30:21.175Z,6152.00
2018-08-22T12:31:21.165Z,6140.00
2018-08-22T12:32:21.221Z,6144.00
2018-08-22T12:33:21.281Z,6184.00
2018-08-22T12:34:21.341Z,6224.00
2018-08-22T12:35:21.359Z,6240.00
2018-08-22T12:36:21.407Z,6256.00
2018-08-22T12:37:21.433Z,6256.00
2018-08-22T12:38:21.407Z,6260.00
2018-08-22T12:39:21.501Z,6284.00
2018-08-22T12:40:21.543Z,6328.00
2018-08-22T12:41:21.594Z,6380.00
2018-08-22T12:42:21.611Z,6484.00
2018-08-22T12:43:21.961Z,6600.00
2018-08-22T12:44:21.662Z,6724.00
2018-08-22T12:45:21.743Z,6812.00
2018-08-22T12:46:21.712Z,6888.00
2018-08-22T12:47:21.791Z,6964.00
2018-08-22T12:48:21.841Z,7076.00
2018-08-22T12:49:22.273Z,7560.00